createdAt,value
2017-05-10T00:00:10.483Z,63.51
2017-05-10T00:01:10.178Z,63.51
2017-05-10T00:02:10.210Z,63.79
2017-05-10T00:03:10.244Z,63.7
2017-05-10T00:04:10.284Z,63.79
2017-05-10T00:05:10.310Z,63.79
2017-05-10T00:06:10.342Z,64.08
2017-05-10T00:07:10.374Z,63.7
2017-05-10T00:08:10.714Z,63.89
2017-05-10T00:09:10.442Z,63.79
2017-05-10T00:10:10.473Z,63.98
2017-05-10T00:11:10.506Z,64.08
2017-05-10T00:12:10.539Z,63.79
2017-05-10T00:13:10.880Z,63.98
2017-05-10T00:14:10.609Z,64.17
2017-05-10T00:15:10.636Z,64.08
2017-05-10T00:16:10.669Z,63.89
2017-05-10T00:17:10.704Z,64.46
2017-05-10T00:18:10.737Z,63.98
2017-05-10T00:19:11.080Z,63.76
2017-05-10T00:20:10.803Z,64.08
2017-05-10T00:21:10.834Z,64.17
2017-05-10T00:22:10.878Z,63.6
2017-05-10T00:23:10.901Z,63.95
2017-05-10T00:24:10.932Z,64.62
2017-05-10T00:25:10.965Z,64.24
2017-05-10T00:26:10.996Z,64.24
2017-05-10T00:27:11.031Z,64.05
2017-05-10T00:28:11.066Z,64.14
2017-05-10T00:29:11.404Z,64.27
2017-05-10T00:30:11.129Z,64.43
2017-05-10T00:31:11.163Z,64.43
2017-05-10T00:32:11.193Z,64.43
2017-05-10T00:33:11.537Z,64.24
2017-05-10T00:34:11.262Z,64.43
2017-05-10T00:35:11.293Z,64.33
2017-05-10T00:36:11.324Z,64.24
2017-05-10T00:37:11.360Z,64.24
2017-05-10T00:38:11.390Z,64.33
2017-05-10T00:39:11.734Z,64.33
2017-05-10T00:40:11.458Z,64.24
2017-05-10T00:41:11.492Z,64.37
2017-05-10T00:42:11.521Z,64.33
2017-05-10T00:43:11.552Z,64.27
2017-05-10T00:44:11.584Z,64.62
2017-05-10T00:45:11.617Z,64.33
2017-05-10T00:46:11.650Z,64.14
2017-05-10T00:47:11.683Z,64.33
2017-05-10T00:48:11.716Z,64.05
2017-05-10T00:49:11.765Z,63.95
2017-05-10T00:50:11.779Z,64.33
2017-05-10T00:51:11.818Z,64.24
2017-05-10T00:52:11.848Z,64.33
2017-05-10T00:53:11.880Z,64.05
2017-05-10T00:54:12.217Z,64.43
2017-05-10T00:55:11.991Z,64.43
2017-05-10T00:56:11.976Z,64.43
2017-05-10T00:57:12.010Z,64.33
2017-05-10T00:58:12.039Z,64.81
2017-05-10T00:59:12.385Z,64.81
2017-05-10T01:00:12.417Z,64.9
2017-05-10T01:01:12.444Z,64.71
2017-05-10T01:02:12.172Z,64.43
2017-05-10T01:03:12.205Z,64.24
2017-05-10T01:04:12.237Z,64.33
2017-05-10T01:05:12.268Z,64.05
2017-05-10T01:06:12.300Z,64.14
2017-05-10T01:07:12.336Z,64.14
2017-05-10T01:08:12.370Z,64.14
2017-05-10T01:09:12.399Z,64.33
2017-05-10T01:10:12.433Z,64.43
2017-05-10T01:11:12.772Z,64.33
2017-05-10T01:12:12.802Z,64.52
2017-05-10T01:13:12.839Z,64.43
2017-05-10T01:14:12.563Z,64.24
2017-05-10T01:15:12.595Z,64.33
2017-05-10T01:16:12.625Z,64.24
2017-05-10T01:17:12.659Z,64.24
2017-05-10T01:18:12.999Z,64.05
2017-05-10T01:19:12.723Z,64.05
2017-05-10T01:20:12.757Z,64.24
2017-05-10T01:21:12.788Z,64.52
2017-05-10T01:22:13.129Z,65
2017-05-10T01:23:13.162Z,65
2017-05-10T01:24:12.885Z,65
2017-05-10T01:25:12.917Z,64.81
2017-05-10T01:26:13.200Z,64.24
2017-05-10T01:27:12.981Z,63.95
2017-05-10T01:28:13.014Z,64.05
2017-05-10T01:29:13.052Z,64.14
2017-05-10T01:30:13.083Z,64.33
2017-05-10T01:31:13.114Z,64.33
2017-05-10T01:32:13.155Z,64.33
2017-05-10T01:33:13.178Z,64.33
2017-05-10T01:34:13.217Z,64.43
2017-05-10T01:35:13.243Z,64.43
2017-05-10T01:36:13.276Z,64.33
2017-05-10T01:37:13.310Z,64.33
2017-05-10T01:38:13.650Z,64.33
2017-05-10T01:39:13.682Z,64.43
2017-05-10T01:40:13.405Z,64.43
2017-05-10T01:41:13.438Z,64.62
2017-05-10T01:42:13.472Z,64.52
2017-05-10T01:43:13.502Z,64.24
2017-05-10T01:44:13.535Z,64.33
2017-05-10T01:45:13.570Z,64.14
2017-05-10T01:46:13.909Z,63.95
2017-05-10T01:47:13.939Z,64.14
2017-05-10T01:48:13.666Z,63.86
2017-05-10T01:49:14.004Z,63.95
2017-05-10T01:50:13.732Z,64.05
2017-05-10T01:51:13.764Z,64.05
2017-05-10T01:52:13.797Z,64.24
2017-05-10T01:53:14.145Z,63.86
2017-05-10T01:54:13.864Z,64.33
2017-05-10T01:55:13.892Z,64.14
2017-05-10T01:56:13.927Z,64.05
2017-05-10T01:57:13.957Z,64.05
2017-05-10T01:58:13.991Z,64.05
2017-05-10T01:59:14.026Z,63.95
2017-05-10T02:00:14.055Z,63.86
2017-05-10T02:01:14.083Z,63.95
2017-05-10T02:02:14.117Z,64.33
2017-05-10T02:03:14.467Z,64.05
2017-05-10T02:04:14.181Z,63.95
2017-05-10T02:05:14.529Z,64.52
2017-05-10T02:06:14.252Z,64.33
2017-05-10T02:07:14.281Z,64.14
2017-05-10T02:08:14.312Z,64.14
2017-05-10T02:09:14.351Z,64.52
2017-05-10T02:10:14.376Z,64.52
2017-05-10T02:11:14.414Z,64.62
2017-05-10T02:12:14.449Z,64.14
2017-05-10T02:13:14.787Z,64.33
2017-05-10T02:14:14.516Z,64.33
2017-05-10T02:15:14.537Z,63.67
2017-05-10T02:16:14.574Z,64.43
2017-05-10T02:17:14.603Z,64.43
2017-05-10T02:18:14.638Z,64.14
2017-05-10T02:19:14.668Z,63.86
2017-05-10T02:20:14.703Z,63.86
2017-05-10T02:21:14.735Z,63.76
2017-05-10T02:22:14.766Z,63.86
2017-05-10T02:23:15.108Z,63.86
2017-05-10T02:24:14.835Z,63.76
2017-05-10T02:25:14.868Z,64.05
2017-05-10T02:26:14.895Z,64.05
2017-05-10T02:27:14.962Z,63.95
2017-05-10T02:28:15.268Z,63.86
2017-05-10T02:29:14.998Z,63.76
2017-05-10T02:30:15.338Z,63.29
2017-05-10T02:31:15.372Z,63.29
2017-05-10T02:32:15.091Z,63.39
2017-05-10T02:33:15.130Z,63.2
2017-05-10T02:34:15.465Z,63.29
2017-05-10T02:35:15.189Z,63.2
2017-05-10T02:36:15.221Z,63.39
2017-05-10T02:37:15.252Z,63.29
2017-05-10T02:38:15.290Z,62.91
2017-05-10T02:39:15.319Z,63.01
2017-05-10T02:40:15.349Z,63.76
2017-05-10T02:41:15.380Z,63.2
2017-05-10T02:42:15.734Z,63.01
2017-05-10T02:43:15.452Z,63.29
2017-05-10T02:44:15.485Z,63.95
2017-05-10T02:45:15.818Z,63.29
2017-05-10T02:46:15.545Z,63.1
2017-05-10T02:47:15.578Z,63.39
2017-05-10T02:48:15.611Z,63.57
2017-05-10T02:49:15.641Z,63.29
2017-05-10T02:50:15.680Z,63.57
2017-05-10T02:51:15.710Z,63.57
2017-05-10T02:52:15.744Z,63.01
2017-05-10T02:53:15.776Z,63.29
2017-05-10T02:54:15.808Z,63.29
2017-05-10T02:55:15.841Z,63.29
2017-05-10T02:56:16.183Z,63.48
2017-05-10T02:57:15.900Z,63.29
2017-05-10T02:58:16.242Z,63.48
2017-05-10T02:59:15.971Z,63.39
2017-05-10T03:00:15.998Z,63.29
2017-05-10T03:01:16.337Z,63.2
2017-05-10T03:02:16.062Z,63.76
2017-05-10T03:03:16.103Z,63.2
2017-05-10T03:04:16.134Z,64.43
2017-05-10T03:05:16.162Z,63.39
2017-05-10T03:06:16.202Z,63.73
2017-05-10T03:07:16.230Z,63.2
2017-05-10T03:08:16.259Z,63.39
2017-05-10T03:09:16.287Z,63.48
2017-05-10T03:10:16.326Z,63.2
2017-05-10T03:11:16.357Z,63.95
2017-05-10T03:12:16.698Z,63.29
2017-05-10T03:13:16.421Z,63.86
2017-05-10T03:14:16.448Z,63.29
2017-05-10T03:15:16.481Z,63.76
2017-05-10T03:16:16.829Z,63.29
2017-05-10T03:17:16.549Z,63.95
2017-05-10T03:18:16.580Z,63.29
2017-05-10T03:19:16.618Z,63.86
2017-05-10T03:20:16.642Z,63.67
2017-05-10T03:21:16.675Z,63.29
2017-05-10T03:22:16.941Z,63.1
2017-05-10T03:23:17.052Z,62.91
2017-05-10T03:24:16.776Z,63.29
2017-05-10T03:25:16.806Z,62.91
2017-05-10T03:26:17.152Z,63.2
2017-05-10T03:27:16.870Z,63.2
2017-05-10T03:28:17.209Z,62.82
2017-05-10T03:29:17.238Z,62.72
2017-05-10T03:30:17.281Z,62.34
2017-05-10T03:31:16.995Z,62.91
2017-05-10T03:32:17.032Z,62.91
2017-05-10T03:33:17.061Z,62.91
2017-05-10T03:34:17.099Z,62.43
2017-05-10T03:35:17.438Z,62.72
2017-05-10T03:36:17.465Z,62.62
2017-05-10T03:37:17.503Z,62.62
2017-05-10T03:38:17.223Z,62.43
2017-05-10T03:39:17.256Z,62.43
2017-05-10T03:40:17.293Z,62.34
2017-05-10T03:41:17.326Z,62.24
2017-05-10T03:42:17.354Z,62.15
2017-05-10T03:43:17.415Z,62.53
2017-05-10T03:44:17.422Z,62.34
2017-05-10T03:45:17.479Z,62.43
2017-05-10T03:46:17.486Z,62.62
2017-05-10T03:47:17.514Z,62.53
2017-05-10T03:48:17.547Z,62.43
2017-05-10T03:49:17.582Z,62.72
2017-05-10T03:50:17.609Z,61.68
2017-05-10T03:51:17.647Z,62.05
2017-05-10T03:52:17.985Z,62.05
2017-05-10T03:53:17.713Z,61.68
2017-05-10T03:54:17.739Z,62.05
2017-05-10T03:55:17.781Z,61.49
2017-05-10T03:56:18.111Z,61.39
2017-05-10T03:57:17.843Z,61.58
2017-05-10T03:58:17.871Z,61.39
2017-05-10T03:59:17.910Z,61.49
2017-05-10T04:00:17.934Z,61.49
2017-05-10T04:01:18.289Z,61.77
2017-05-10T04:02:18.008Z,61.58
2017-05-10T04:03:18.042Z,61.58
2017-05-10T04:04:18.065Z,61.49
2017-05-10T04:05:18.103Z,61.42
2017-05-10T04:06:18.131Z,61.23
2017-05-10T04:07:18.179Z,61.14
2017-05-10T04:08:18.507Z,61.23
2017-05-10T04:09:18.545Z,60.76
2017-05-10T04:10:18.588Z,60.76
2017-05-10T04:11:18.606Z,60.66
2017-05-10T04:12:18.334Z,61.33
2017-05-10T04:13:18.362Z,60.95
2017-05-10T04:14:18.701Z,60.76
2017-05-10T04:15:18.432Z,60.28
2017-05-10T04:16:18.462Z,60.76
2017-05-10T04:17:18.501Z,60.47
2017-05-10T04:18:18.531Z,60.57
2017-05-10T04:19:18.558Z,60.28
2017-05-10T04:20:18.595Z,60.19
2017-05-10T04:21:18.631Z,60
2017-05-10T04:22:18.654Z,59.71
2017-05-10T04:23:18.687Z,59.62
2017-05-10T04:24:18.731Z,59.62
2017-05-10T04:25:18.794Z,59.71
2017-05-10T04:26:19.096Z,59.81
2017-05-10T04:27:18.826Z,60
2017-05-10T04:28:18.853Z,59.91
2017-05-10T04:29:18.887Z,60
2017-05-10T04:30:18.924Z,60
2017-05-10T04:31:18.953Z,59.43
2017-05-10T04:32:18.992Z,59.24
2017-05-10T04:33:19.017Z,59.71
2017-05-10T04:34:19.365Z,59.52
2017-05-10T04:35:19.084Z,59.52
2017-05-10T04:36:19.117Z,59.14
2017-05-10T04:37:19.149Z,59.05
2017-05-10T04:38:19.185Z,58.95
2017-05-10T04:39:19.222Z,59.33
2017-05-10T04:40:19.256Z,58.76
2017-05-10T04:41:19.289Z,58.58
2017-05-10T04:42:19.328Z,58.58
2017-05-10T04:43:19.353Z,58.39
2017-05-10T04:44:19.690Z,58.48
2017-05-10T04:45:19.731Z,58.86
2017-05-10T04:46:19.446Z,58.48
2017-05-10T04:47:19.495Z,58
2017-05-10T04:48:19.820Z,58.39
2017-05-10T04:49:19.548Z,58
2017-05-10T04:50:19.581Z,58.1
2017-05-10T04:51:19.617Z,58.48
2017-05-10T04:52:19.660Z,58
2017-05-10T04:53:19.719Z,58.29
2017-05-10T04:54:19.869Z,58.29
2017-05-10T04:55:19.751Z,58.29
2017-05-10T04:56:19.778Z,58.2
2017-05-10T04:57:19.812Z,57.62
2017-05-10T04:58:19.845Z,57.62
2017-05-10T04:59:19.880Z,58
2017-05-10T05:00:19.912Z,58.2
2017-05-10T05:01:19.950Z,57.62
2017-05-10T05:02:19.997Z,57.43
2017-05-10T05:03:20.019Z,57.62
2017-05-10T05:04:20.045Z,57.91
2017-05-10T05:05:20.101Z,57.81
2017-05-10T05:06:20.455Z,57.53
2017-05-10T05:07:20.143Z,57.43
2017-05-10T05:08:20.188Z,57.94
2017-05-10T05:09:20.212Z,57.37
2017-05-10T05:10:20.248Z,57.56
2017-05-10T05:11:20.281Z,57.65
2017-05-10T05:12:20.318Z,57.65
2017-05-10T05:13:20.652Z,57.65
2017-05-10T05:14:20.684Z,58.13
2017-05-10T05:15:20.431Z,58.32
2017-05-10T05:16:20.754Z,58.41
2017-05-10T05:17:20.478Z,58.32
2017-05-10T05:18:20.519Z,58.13
2017-05-10T05:19:20.856Z,57.84
2017-05-10T05:20:20.585Z,58.35
2017-05-10T05:21:20.613Z,58.25
2017-05-10T05:22:20.751Z,58.06
2017-05-10T05:23:20.684Z,57.87
2017-05-10T05:24:20.713Z,57.59
2017-05-10T05:25:20.779Z,57.4
2017-05-10T05:26:20.855Z,57.5
2017-05-10T05:27:20.840Z,57.78
2017-05-10T05:28:20.856Z,57.5
2017-05-10T05:29:23.017Z,57.59
2017-05-10T05:30:20.920Z,57.3
2017-05-10T05:31:21.046Z,57.71
2017-05-10T05:32:21.001Z,57.33
2017-05-10T05:33:21.326Z,57.24
2017-05-10T05:34:21.063Z,57.24
2017-05-10T05:35:21.404Z,57.24
2017-05-10T05:36:21.126Z,56.76
2017-05-10T05:37:21.158Z,56.76
2017-05-10T05:38:21.200Z,57.43
2017-05-10T05:39:21.235Z,56.95
2017-05-10T05:40:21.470Z,56.76
2017-05-10T05:41:21.338Z,57.17
2017-05-10T05:42:21.339Z,57.17
2017-05-10T05:43:21.680Z,56.7
2017-05-10T05:44:21.411Z,56.51
2017-05-10T05:45:21.782Z,56.79
2017-05-10T05:46:21.477Z,56.92
2017-05-10T05:47:21.508Z,56.53
2017-05-10T05:48:21.881Z,56.72
2017-05-10T05:49:21.917Z,56.53
2017-05-10T05:50:21.709Z,56.63
2017-05-10T05:51:21.955Z,55.77
2017-05-10T05:52:21.689Z,55.96
2017-05-10T05:53:21.719Z,56.15
2017-05-10T05:54:21.863Z,56.24
2017-05-10T05:55:22.100Z,55.87
2017-05-10T05:56:21.871Z,55.8
2017-05-10T05:57:21.861Z,55.51
2017-05-10T05:58:21.900Z,55.13
2017-05-10T05:59:21.943Z,55.61
2017-05-10T06:00:22.006Z,55.61
2017-05-10T06:01:22.005Z,55.13
2017-05-10T06:02:22.042Z,55.35
2017-05-10T06:03:22.076Z,55.07
2017-05-10T06:04:22.452Z,54.49
2017-05-10T06:05:22.148Z,54.11
2017-05-10T06:06:22.181Z,53.95
2017-05-10T06:07:22.223Z,53.76
2017-05-10T06:08:22.253Z,53.56
2017-05-10T06:09:22.791Z,53.76
2017-05-10T06:10:22.331Z,53.69
2017-05-10T06:11:22.367Z,53.21
2017-05-10T06:12:22.411Z,52.45
2017-05-10T06:13:22.441Z,52.16
2017-05-10T06:14:22.790Z,51.62
2017-05-10T06:15:22.820Z,51.9
2017-05-10T06:16:22.552Z,50.95
2017-05-10T06:17:22.588Z,51.33
2017-05-10T06:18:22.632Z,51.33
2017-05-10T06:19:22.667Z,51.23
2017-05-10T06:20:23.013Z,51.43
2017-05-10T06:21:22.743Z,50.98
2017-05-10T06:22:23.088Z,50.12
2017-05-10T06:23:22.818Z,50.49
2017-05-10T06:24:22.855Z,49.07
2017-05-10T06:25:23.342Z,48.49
2017-05-10T06:26:22.923Z,48.68
2017-05-10T06:27:22.965Z,48.23
2017-05-10T06:28:23.073Z,48.42
2017-05-10T06:29:23.037Z,48.11
2017-05-10T06:30:23.076Z,47.94
2017-05-10T06:31:23.113Z,47.66
2017-05-10T06:32:23.152Z,47.27
2017-05-10T06:33:23.497Z,47.47
2017-05-10T06:34:23.541Z,46.92
2017-05-10T06:35:23.268Z,46.44
2017-05-10T06:36:23.310Z,46.25
2017-05-10T06:37:23.342Z,45.77
2017-05-10T06:38:23.385Z,45.29
2017-05-10T06:39:23.422Z,44.51
2017-05-10T06:40:23.461Z,44.7
2017-05-10T06:41:23.496Z,44.7
2017-05-10T06:42:23.848Z,44.58
2017-05-10T06:43:23.879Z,44.67
2017-05-10T06:44:23.924Z,44.29
2017-05-10T06:45:23.653Z,44.94
2017-05-10T06:46:23.685Z,45.42
2017-05-10T06:47:23.725Z,44.94
2017-05-10T06:48:23.766Z,44.84
2017-05-10T06:49:24.111Z,45.32
2017-05-10T06:50:23.834Z,45.61
2017-05-10T06:51:24.179Z,45.79
2017-05-10T06:52:23.908Z,45.53
2017-05-10T06:53:24.261Z,44.96
2017-05-10T06:54:24.300Z,45.56
2017-05-10T06:55:24.032Z,45.17
2017-05-10T06:56:25.592Z,45.67
2017-05-10T06:57:24.111Z,45.12
2017-05-10T06:58:24.448Z,44.48
2017-05-10T06:59:24.181Z,44.76
2017-05-10T07:00:24.220Z,44.02
2017-05-10T07:01:24.269Z,43.37
2017-05-10T07:02:24.305Z,42.51
2017-05-10T07:03:24.683Z,41.84
2017-05-10T07:04:24.689Z,41.27
2017-05-10T07:05:24.422Z,41.63
2017-05-10T07:06:24.467Z,41.82
2017-05-10T07:07:24.801Z,42.2
2017-05-10T07:08:24.539Z,41.53
2017-05-10T07:09:24.877Z,41.61
2017-05-10T07:10:24.611Z,41.41
2017-05-10T07:11:24.970Z,41.51
2017-05-10T07:12:25.006Z,41.8
2017-05-10T07:13:25.044Z,41.51
2017-05-10T07:14:25.083Z,41.15
2017-05-10T07:15:25.123Z,41.34
2017-05-10T07:16:25.157Z,41.63
2017-05-10T07:17:24.892Z,40.88
2017-05-10T07:18:24.932Z,40.21
2017-05-10T07:19:24.977Z,39.64
2017-05-10T07:20:25.011Z,39.54
2017-05-10T07:21:25.091Z,39.16
2017-05-10T07:22:25.084Z,39.35
2017-05-10T07:23:25.132Z,39.06
2017-05-10T07:24:25.173Z,39.47
2017-05-10T07:25:25.210Z,40.06
2017-05-10T07:26:25.243Z,39.29
2017-05-10T07:27:25.289Z,39.12
2017-05-10T07:28:25.641Z,39.33
2017-05-10T07:29:25.675Z,39.35
2017-05-10T07:30:25.406Z,38.99
2017-05-10T07:31:25.450Z,38.64
2017-05-10T07:32:25.489Z,36.83
2017-05-10T07:33:25.538Z,35.99
2017-05-10T07:34:25.584Z,36.08
2017-05-10T07:35:25.625Z,34.75
2017-05-10T07:36:25.667Z,34.19
2017-05-10T07:37:25.709Z,33.34
2017-05-10T07:38:25.754Z,33.34
2017-05-10T07:39:26.100Z,32.28
2017-05-10T07:40:25.843Z,31.51
2017-05-10T07:41:26.185Z,31.04
2017-05-10T07:42:25.931Z,31.14
2017-05-10T07:43:26.276Z,30.66
2017-05-10T07:44:26.010Z,30.35
2017-05-10T07:45:26.053Z,29.87
2017-05-10T07:46:26.096Z,29.68
2017-05-10T07:47:26.147Z,29.58
2017-05-10T07:48:26.193Z,30.07
2017-05-10T07:49:26.234Z,29.31
2017-05-10T07:50:26.277Z,28.34
2017-05-10T07:51:26.325Z,28.34
2017-05-10T07:52:26.372Z,28.34
2017-05-10T07:53:26.421Z,28.07
2017-05-10T07:54:26.459Z,27.29
2017-05-10T07:55:26.499Z,27.29
2017-05-10T07:56:26.541Z,27.49
2017-05-10T07:57:26.659Z,27.31
2017-05-10T07:58:26.631Z,27.31
2017-05-10T07:59:26.712Z,26.93
2017-05-10T08:00:26.721Z,25.6
2017-05-10T08:01:26.766Z,25.12
2017-05-10T08:02:26.819Z,25.5
2017-05-10T08:03:26.866Z,24.91
2017-05-10T08:04:27.216Z,24.52
2017-05-10T08:05:28.157Z,23.94
2017-05-10T08:06:27.300Z,24.03
2017-05-10T08:07:27.115Z,23.93
2017-05-10T08:08:27.091Z,24.21
2017-05-10T08:09:27.986Z,24.6
2017-05-10T08:10:27.361Z,24.4
2017-05-10T08:11:27.243Z,24.4
2017-05-10T08:12:27.286Z,24.61
2017-05-10T08:13:27.337Z,24.03
2017-05-10T08:14:27.355Z,23.55
2017-05-10T08:15:27.401Z,23.45
2017-05-10T08:16:27.447Z,23.25
2017-05-10T08:17:27.530Z,23.65
2017-05-10T08:18:27.541Z,23.75
2017-05-10T08:19:27.899Z,23.18
2017-05-10T08:20:27.632Z,23.18
2017-05-10T08:21:27.680Z,22.52
2017-05-10T08:22:27.720Z,21.66
2017-05-10T08:23:28.077Z,22.14
2017-05-10T08:24:27.813Z,21.45
2017-05-10T08:25:27.881Z,21.55
2017-05-10T08:26:27.910Z,21.64
2017-05-10T08:27:27.949Z,21.53
2017-05-10T08:28:27.993Z,21.72
2017-05-10T08:29:28.041Z,21.62
2017-05-10T08:30:28.087Z,21.23
2017-05-10T08:31:28.146Z,21.13
2017-05-10T08:32:28.174Z,21.42
2017-05-10T08:33:28.221Z,21.62
2017-05-10T08:34:28.265Z,21.7
2017-05-10T08:35:28.314Z,21.62
2017-05-10T08:36:28.356Z,21.23
2017-05-10T08:37:28.402Z,20.84
2017-05-10T08:38:28.450Z,20.56
2017-05-10T08:39:28.492Z,20.37
2017-05-10T08:40:28.535Z,20.56
2017-05-10T08:41:28.580Z,19.61
2017-05-10T08:42:28.627Z,19.7
2017-05-10T08:43:28.680Z,19.51
2017-05-10T08:44:29.027Z,19.51
2017-05-10T08:45:29.079Z,19.7
2017-05-10T08:46:28.814Z,19.81
2017-05-10T08:47:29.170Z,20.01
2017-05-10T08:48:29.220Z,19.81
2017-05-10T08:49:29.270Z,19.71
2017-05-10T08:50:29.319Z,19.91
2017-05-10T08:51:29.055Z,18.75
2017-05-10T08:52:29.109Z,19.53
2017-05-10T08:53:29.151Z,19.92
2017-05-10T08:54:29.194Z,19.73
2017-05-10T08:55:29.242Z,19.15
2017-05-10T08:56:29.591Z,19.15
2017-05-10T08:57:29.341Z,19.64
2017-05-10T08:58:29.392Z,19.07
2017-05-10T08:59:29.744Z,19.07
2017-05-10T09:00:29.482Z,18.68
2017-05-10T09:01:29.527Z,18.19
2017-05-10T09:02:29.574Z,18.77
2017-05-10T09:03:29.942Z,18.19
2017-05-10T09:04:29.668Z,18.39
2017-05-10T09:05:30.025Z,18.19
2017-05-10T09:06:29.767Z,18
2017-05-10T09:07:30.123Z,17.61
2017-05-10T09:08:30.171Z,17.52
2017-05-10T09:09:30.220Z,17.8
2017-05-10T09:10:29.963Z,17.51
2017-05-10T09:11:30.010Z,17.99
2017-05-10T09:12:31.082Z,17.9
2017-05-10T09:13:30.415Z,17.8
2017-05-10T09:14:30.160Z,17.6
2017-05-10T09:15:30.206Z,17.6
2017-05-10T09:16:30.258Z,17.22
2017-05-10T09:17:30.306Z,16.93
2017-05-10T09:18:30.661Z,16.63
2017-05-10T09:19:30.703Z,17.02
2017-05-10T09:20:30.450Z,16.82
2017-05-10T09:21:30.802Z,17.1
2017-05-10T09:22:30.543Z,17.2
2017-05-10T09:23:30.593Z,17.2
2017-05-10T09:24:30.644Z,17.1
2017-05-10T09:25:30.692Z,17.29
2017-05-10T09:26:30.733Z,16.9
2017-05-10T09:27:31.328Z,17
2017-05-10T09:28:30.828Z,17.1
2017-05-10T09:29:31.233Z,17.57
2017-05-10T09:30:30.929Z,17.76
2017-05-10T09:31:30.972Z,17.56
2017-05-10T09:32:31.018Z,17.37
2017-05-10T09:33:31.069Z,17.66
2017-05-10T09:34:31.118Z,17.66
2017-05-10T09:35:31.160Z,17.47
2017-05-10T09:36:31.515Z,17.66
2017-05-10T09:37:31.267Z,17.76
2017-05-10T09:38:31.308Z,17.66
2017-05-10T09:39:31.348Z,17.66
2017-05-10T09:40:31.395Z,17.95
2017-05-10T09:41:31.450Z,17.85
2017-05-10T09:42:31.493Z,17.56
2017-05-10T09:43:31.536Z,17.85
2017-05-10T09:44:31.594Z,17.47
2017-05-10T09:45:31.640Z,17.75
2017-05-10T09:46:31.758Z,17.75
2017-05-10T09:47:31.722Z,18.42
2017-05-10T09:48:31.775Z,18.32
2017-05-10T09:49:31.815Z,18.41
2017-05-10T09:50:31.867Z,18.32
2017-05-10T09:51:31.915Z,18.51
2017-05-10T09:52:31.955Z,18.6
2017-05-10T09:53:32.010Z,18.9
2017-05-10T09:54:32.063Z,18.41
2017-05-10T09:55:32.100Z,18.6
2017-05-10T09:56:32.144Z,18.5
2017-05-10T09:57:32.498Z,18.7
2017-05-10T09:58:32.236Z,19.08
2017-05-10T09:59:32.282Z,18.88
2017-05-10T10:00:32.331Z,19.08
2017-05-10T10:01:32.686Z,19.08
2017-05-10T10:02:32.727Z,19.08
2017-05-10T10:03:32.467Z,19.46
2017-05-10T10:04:32.524Z,19.37
2017-05-10T10:05:32.876Z,19.65
2017-05-10T10:06:32.922Z,19.37
2017-05-10T10:07:32.664Z,19.38
2017-05-10T10:08:32.709Z,19.67
2017-05-10T10:09:32.754Z,19.37
2017-05-10T10:10:33.111Z,19.27
2017-05-10T10:11:33.158Z,19.08
2017-05-10T10:12:32.898Z,19.08
2017-05-10T10:13:32.937Z,19.75
2017-05-10T10:14:32.989Z,19.75
2017-05-10T10:15:33.352Z,20.43
2017-05-10T10:16:33.088Z,20.14
2017-05-10T10:17:33.127Z,20.23
2017-05-10T10:18:33.178Z,20.23
2017-05-10T10:19:33.231Z,20.23
2017-05-10T10:20:33.274Z,20.53
2017-05-10T10:21:34.133Z,20.34
2017-05-10T10:22:33.379Z,20.34
2017-05-10T10:23:33.424Z,19.95
2017-05-10T10:24:33.786Z,20.25
2017-05-10T10:25:33.524Z,19.86
2017-05-10T10:26:33.885Z,20.15
2017-05-10T10:27:33.621Z,19.86
2017-05-10T10:28:33.670Z,20.05
2017-05-10T10:29:33.723Z,19.58
2017-05-10T10:30:34.079Z,19.77
2017-05-10T10:31:33.823Z,19.96
2017-05-10T10:32:34.185Z,20.25
2017-05-10T10:33:34.240Z,20.35
2017-05-10T10:34:34.282Z,19.96
2017-05-10T10:35:34.037Z,19.96
2017-05-10T10:36:34.081Z,20.25
2017-05-10T10:37:34.130Z,19.68
2017-05-10T10:38:34.183Z,20.25
2017-05-10T10:39:34.247Z,20.35
2017-05-10T10:40:34.288Z,20.15
2017-05-10T10:41:34.340Z,20.25
2017-05-10T10:42:34.387Z,20.14
2017-05-10T10:43:34.440Z,20.53
2017-05-10T10:44:34.485Z,20.23
2017-05-10T10:45:34.535Z,20.32
2017-05-10T10:46:34.582Z,21.28
2017-05-10T10:47:34.628Z,21.38
2017-05-10T10:48:34.683Z,21.67
2017-05-10T10:49:34.729Z,21.19
2017-05-10T10:50:34.772Z,21.66
2017-05-10T10:51:34.828Z,21.09
2017-05-10T10:52:35.179Z,21.56
2017-05-10T10:53:34.925Z,21.66
2017-05-10T10:54:34.971Z,21.66
2017-05-10T10:55:35.018Z,21.85
2017-05-10T10:56:35.067Z,21.95
2017-05-10T10:57:35.120Z,21.47
2017-05-10T10:58:35.164Z,21.85
2017-05-10T10:59:35.213Z,21.65
2017-05-10T11:00:35.259Z,22.03
2017-05-10T11:01:35.314Z,22.03
2017-05-10T11:02:35.356Z,22.42
2017-05-10T11:03:35.403Z,22.42
2017-05-10T11:04:35.458Z,22.61
2017-05-10T11:05:35.501Z,22.61
2017-05-10T11:06:35.553Z,22.71
2017-05-10T11:07:35.649Z,23.19
2017-05-10T11:08:35.648Z,22.52
2017-05-10T11:09:35.699Z,22.61
2017-05-10T11:10:35.748Z,22.72
2017-05-10T11:11:35.794Z,22.42
2017-05-10T11:12:35.844Z,22.71
2017-05-10T11:13:36.224Z,22.8
2017-05-10T11:14:35.946Z,22.61
2017-05-10T11:15:35.988Z,22.71
2017-05-10T11:16:36.593Z,22.41
2017-05-10T11:17:36.392Z,22.69
2017-05-10T11:18:36.133Z,22.69
2017-05-10T11:19:36.179Z,22.79
2017-05-10T11:20:36.275Z,23.08
2017-05-10T11:21:36.576Z,22.99
2017-05-10T11:22:36.317Z,23.27
2017-05-10T11:23:36.357Z,23.27
2017-05-10T11:24:36.711Z,23.75
2017-05-10T11:25:36.764Z,23.75
2017-05-10T11:26:36.494Z,23.37
2017-05-10T11:27:36.537Z,23.56
2017-05-10T11:28:36.586Z,23.46
2017-05-10T11:29:36.628Z,23.56
2017-05-10T11:30:36.671Z,23.75
2017-05-10T11:31:36.723Z,23.37
2017-05-10T11:32:36.767Z,23.84
2017-05-10T11:33:36.815Z,23.93
2017-05-10T11:34:36.848Z,24.22
2017-05-10T11:35:36.895Z,24.22
2017-05-10T11:36:36.940Z,24.13
2017-05-10T11:37:36.999Z,24.22
2017-05-10T11:38:37.033Z,24.13
2017-05-10T11:39:37.066Z,24.13
2017-05-10T11:40:37.110Z,24.41
2017-05-10T11:41:37.151Z,24.5
2017-05-10T11:42:37.193Z,24.79
2017-05-10T11:43:37.245Z,24.88
2017-05-10T11:44:37.284Z,24.88
2017-05-10T11:45:37.334Z,25.06
2017-05-10T11:46:37.372Z,24.96
2017-05-10T11:47:37.412Z,25.36
2017-05-10T11:48:37.473Z,25.06
2017-05-10T11:49:37.491Z,25.06
2017-05-10T11:50:37.545Z,25.26
2017-05-10T11:51:37.589Z,25.35
2017-05-10T11:52:37.673Z,25.45
2017-05-10T11:53:37.673Z,25.64
2017-05-10T11:54:38.007Z,25.73
2017-05-10T11:55:38.055Z,26.21
2017-05-10T11:56:38.091Z,25.93
2017-05-10T11:57:37.831Z,26.21
2017-05-10T11:58:37.868Z,26.12
2017-05-10T11:59:38.224Z,26.31
2017-05-10T12:00:38.260Z,26.21
2017-05-10T12:01:38.300Z,26.03
2017-05-10T12:02:38.120Z,26.03
2017-05-10T12:03:38.075Z,26.03
2017-05-10T12:04:38.424Z,26.03
2017-05-10T12:05:38.162Z,26.03
2017-05-10T12:06:38.198Z,26.4
2017-05-10T12:07:38.240Z,26.89
2017-05-10T12:08:38.287Z,26.79
2017-05-10T12:09:38.328Z,26.7
2017-05-10T12:10:38.370Z,26.7
2017-05-10T12:11:38.405Z,26.31
2017-05-10T12:12:38.446Z,26.03
2017-05-10T12:13:38.794Z,26.31
2017-05-10T12:14:38.536Z,26.5
2017-05-10T12:15:38.878Z,26.6
2017-05-10T12:16:38.608Z,26.68
2017-05-10T12:17:38.653Z,26.78
2017-05-10T12:18:39.002Z,27.06
2017-05-10T12:19:39.046Z,26.87
2017-05-10T12:20:38.773Z,27.36
2017-05-10T12:21:39.128Z,27.26
2017-05-10T12:22:38.861Z,27.26
2017-05-10T12:23:39.206Z,26.87
2017-05-10T12:24:38.937Z,27.16
2017-05-10T12:25:38.979Z,27.16
2017-05-10T12:26:39.026Z,26.97
2017-05-10T12:27:39.060Z,27.36
2017-05-10T12:28:39.145Z,27.73
2017-05-10T12:29:39.148Z,27.73
2017-05-10T12:30:39.497Z,27.93
2017-05-10T12:31:39.229Z,27.83
2017-05-10T12:32:39.273Z,27.93
2017-05-10T12:33:39.310Z,27.73
2017-05-10T12:34:39.350Z,27.64
2017-05-10T12:35:39.743Z,27.83
2017-05-10T12:36:39.434Z,27.93
2017-05-10T12:37:39.468Z,28.03
2017-05-10T12:38:39.510Z,27.83
2017-05-10T12:39:39.556Z,28.12
2017-05-10T12:40:39.592Z,27.73
2017-05-10T12:41:39.937Z,27.83
2017-05-10T12:42:39.674Z,27.64
2017-05-10T12:43:39.714Z,28.22
2017-05-10T12:44:39.760Z,28.03
2017-05-10T12:45:39.799Z,27.93
2017-05-10T12:46:40.149Z,28.03
2017-05-10T12:47:40.186Z,28.03
2017-05-10T12:48:39.914Z,28.03
2017-05-10T12:49:39.965Z,28.12
2017-05-10T12:50:39.997Z,28.12
2017-05-10T12:51:40.351Z,27.83
2017-05-10T12:52:40.395Z,28.12
2017-05-10T12:53:40.125Z,28.22
2017-05-10T12:54:40.475Z,28.31
2017-05-10T12:55:40.196Z,28.22